createdAt,value
2023-02-11T00:01:45.705Z,41.80
2023-02-11T00:04:12.199Z,41.50
2023-02-11T00:06:38.623Z,43.50
2023-02-11T00:09:05.123Z,43.40
2023-02-11T00:11:31.645Z,40.75
2023-02-11T00:13:59.794Z,42.25
2023-02-11T00:16:26.317Z,40.00
2023-02-11T00:18:54.133Z,40.40
2023-02-11T00:21:22.135Z,44.00
2023-02-11T00:23:49.222Z,42.40
2023-02-11T00:26:16.868Z,43.00
2023-02-11T00:28:43.818Z,42.60
2023-02-11T00:31:10.844Z,42.60
2023-02-11T00:33:37.827Z,41.75
2023-02-11T00:36:05.615Z,41.75
2023-02-11T00:38:32.085Z,41.00
2023-02-11T00:40:58.533Z,39.80
2023-02-11T00:43:25.109Z,41.40
2023-02-11T00:45:52.001Z,40.00
2023-02-11T00:48:18.664Z,38.67
2023-02-11T00:50:45.125Z,40.00
2023-02-11T00:53:11.581Z,39.00
2023-02-11T00:55:38.083Z,39.50
2023-02-11T00:58:04.548Z,39.50
2023-02-11T01:00:30.993Z,38.00
2023-02-11T01:02:57.488Z,38.25
2023-02-11T01:05:23.978Z,39.00
2023-02-11T01:07:50.569Z,38.00
2023-02-11T01:10:17.152Z,39.00
2023-02-11T01:12:43.628Z,38.00
2023-02-11T01:15:11.689Z,40.25
2023-02-11T01:17:38.268Z,39.40
2023-02-11T01:20:05.460Z,38.00
2023-02-11T01:22:32.111Z,42.25
2023-02-11T01:24:58.722Z,42.25
2023-02-11T01:27:25.181Z,41.75
2023-02-11T01:29:51.673Z,38.50
2023-02-11T01:32:18.280Z,42.00
2023-02-11T01:34:44.773Z,40.80
2023-02-11T01:37:11.323Z,40.00
2023-02-11T01:39:37.768Z,41.50
2023-02-11T01:42:04.224Z,40.75
2023-02-11T01:44:30.725Z,40.00
2023-02-11T01:46:57.421Z,40.00
2023-02-11T01:49:44.627Z,41.00
2023-02-11T01:52:14.808Z,40.00
2023-02-11T01:55:04.056Z,40.00
2023-02-11T01:57:32.202Z,40.00
2023-02-11T02:00:14.177Z,40.00
2023-02-11T02:02:43.585Z,39.00
2023-02-11T02:05:10.007Z,41.00
2023-02-11T02:07:39.655Z,40.00
2023-02-11T02:10:09.510Z,39.80
2023-02-11T02:12:36.008Z,38.33
2023-02-11T02:15:22.185Z,37.80
2023-02-11T02:18:00.122Z,37.00
2023-02-11T02:20:41.953Z,38.00
2023-02-11T02:23:27.164Z,39.00
2023-02-11T02:26:09.213Z,38.00
2023-02-11T02:28:38.802Z,38.00
2023-02-11T02:31:26.717Z,38.00
2023-02-11T02:33:56.074Z,37.00
2023-02-11T02:36:22.501Z,37.25
2023-02-11T02:38:54.075Z,38.50
2023-02-11T02:41:24.456Z,37.00
2023-02-11T02:43:51.760Z,38.00
2023-02-11T02:46:18.237Z,36.00
2023-02-11T02:48:45.529Z,36.00
2023-02-11T02:51:18.173Z,36.00
2023-02-11T02:53:52.110Z,36.00
2023-02-11T02:56:25.627Z,36.75
2023-02-11T02:59:03.719Z,37.00
2023-02-11T03:01:39.795Z,36.00
2023-02-11T03:04:09.012Z,36.20
2023-02-11T03:06:38.462Z,37.40
2023-02-11T03:09:10.348Z,38.00
2023-02-11T03:11:38.028Z,36.00
2023-02-11T03:14:07.023Z,36.25
2023-02-11T03:16:39.361Z,36.40
2023-02-11T03:19:10.618Z,36.00
2023-02-11T03:21:39.448Z,36.00
2023-02-11T03:24:12.497Z,36.00
2023-02-11T03:26:41.195Z,35.60
2023-02-11T03:29:34.044Z,36.50
2023-02-11T03:32:00.540Z,37.75
2023-02-11T03:34:27.003Z,36.50
2023-02-11T03:37:01.318Z,38.00
2023-02-11T03:39:31.309Z,36.00
2023-02-11T03:41:59.680Z,36.50
2023-02-11T03:44:29.421Z,36.00
2023-02-11T03:46:56.128Z,34.25
2023-02-11T03:49:24.505Z,35.00
2023-02-11T03:51:52.413Z,35.00
2023-02-11T03:54:21.333Z,36.00
2023-02-11T03:56:55.654Z,35.00
2023-02-11T03:59:22.296Z,35.50
2023-02-11T04:01:48.854Z,36.75
2023-02-11T04:04:15.401Z,72.00
2023-02-11T04:06:41.885Z,56.25
2023-02-11T04:09:08.913Z,38.20
2023-02-11T04:11:35.400Z,39.00
2023-02-11T04:14:01.856Z,37.25
2023-02-11T04:16:30.247Z,40.00
2023-02-11T04:18:57.250Z,41.00
2023-02-11T04:21:23.708Z,39.60
2023-02-11T04:23:50.159Z,48.25
2023-02-11T04:26:16.643Z,52.50
2023-02-11T04:28:43.096Z,37.40
2023-02-11T04:31:10.843Z,36.00
2023-02-11T04:33:37.315Z,36.40
2023-02-11T04:36:03.861Z,34.00
2023-02-11T04:38:30.322Z,36.00
2023-02-11T04:40:57.762Z,36.00
2023-02-11T04:43:24.264Z,39.00
2023-02-11T04:45:51.005Z,43.60
2023-02-11T04:48:20.232Z,48.00
2023-02-11T04:50:46.682Z,36.00
2023-02-11T04:53:13.152Z,40.00
2023-02-11T04:55:39.635Z,35.00
2023-02-11T04:58:06.172Z,34.00
2023-02-11T05:00:32.589Z,36.50
2023-02-11T05:02:59.080Z,33.00
2023-02-11T05:05:25.568Z,40.00
2023-02-11T05:07:52.086Z,49.75
2023-02-11T05:10:18.600Z,53.00
2023-02-11T05:12:45.041Z,56.00
2023-02-11T05:15:11.508Z,48.60
2023-02-11T05:17:38.074Z,50.00
2023-02-11T05:20:04.800Z,52.50
2023-02-11T05:22:31.312Z,50.00
2023-02-11T05:24:57.795Z,49.00
2023-02-11T05:27:24.289Z,38.25
2023-02-11T05:29:50.720Z,34.00
2023-02-11T05:32:17.202Z,33.40
2023-02-11T05:34:43.664Z,33.75
2023-02-11T05:37:10.171Z,33.75
2023-02-11T05:39:36.630Z,35.25
2023-02-11T05:42:03.179Z,34.40
2023-02-11T05:44:29.676Z,37.00
2023-02-11T05:46:56.224Z,37.00
2023-02-11T05:49:22.909Z,37.00
2023-02-11T05:51:49.444Z,39.00
2023-02-11T05:54:16.368Z,38.00
2023-02-11T05:56:44.806Z,37.00
2023-02-11T05:59:13.186Z,39.00
2023-02-11T06:01:39.713Z,42.00
2023-02-11T06:04:06.399Z,39.00
2023-02-11T06:06:32.870Z,37.00
2023-02-11T06:08:59.387Z,35.60
2023-02-11T06:11:25.912Z,33.00
2023-02-11T06:13:52.595Z,31.00
2023-02-11T06:16:19.197Z,31.00
2023-02-11T06:18:45.739Z,30.60
2023-02-11T06:21:12.599Z,29.00
2023-02-11T06:23:39.129Z,30.00
2023-02-11T06:26:06.885Z,31.00
2023-02-11T06:28:33.698Z,27.00
2023-02-11T06:31:06.569Z,30.20
2023-02-11T06:33:33.672Z,28.00
2023-02-11T06:36:00.405Z,27.00
2023-02-11T06:38:26.931Z,30.20
2023-02-11T06:40:53.445Z,31.00
2023-02-11T06:43:20.132Z,31.00
2023-02-11T06:45:52.167Z,30.00
2023-02-11T06:48:18.792Z,28.00
2023-02-11T06:50:45.271Z,34.50
2023-02-11T06:53:11.806Z,37.00
2023-02-11T06:55:38.252Z,33.00
2023-02-11T06:58:04.968Z,32.00
2023-02-11T07:00:31.452Z,31.00
2023-02-11T07:02:57.976Z,31.00
2023-02-11T07:05:24.435Z,33.00
2023-02-11T07:07:50.981Z,38.00
2023-02-11T07:10:17.463Z,40.00
2023-02-11T07:12:43.995Z,41.00
2023-02-11T07:15:10.581Z,44.00
2023-02-11T07:17:37.290Z,44.00
2023-02-11T07:20:03.941Z,39.00
2023-02-11T07:22:30.412Z,35.60
2023-02-11T07:24:56.949Z,36.00
2023-02-11T07:27:23.456Z,32.00
2023-02-11T07:29:49.963Z,33.00
2023-02-11T07:32:16.471Z,33.00
2023-02-11T07:34:43.034Z,44.00
2023-02-11T07:37:09.598Z,42.00
2023-02-11T07:39:36.159Z,53.00
2023-02-11T07:42:03.895Z,48.75
2023-02-11T07:44:30.502Z,42.50
2023-02-11T07:46:57.053Z,45.50
2023-02-11T07:49:23.613Z,42.25
2023-02-11T07:51:51.473Z,39.00
2023-02-11T07:54:18.061Z,44.75
2023-02-11T07:56:44.559Z,63.60
2023-02-11T07:59:11.260Z,68.25
2023-02-11T08:01:37.841Z,88.75
2023-02-11T08:04:04.554Z,81.00
2023-02-11T08:06:32.200Z,46.80
2023-02-11T08:09:03.387Z,53.00
2023-02-11T08:11:29.929Z,46.20
2023-02-11T08:13:56.775Z,42.00
2023-02-11T08:16:28.226Z,35.00
2023-02-11T08:18:57.427Z,33.60
2023-02-11T08:21:24.102Z,30.00
2023-02-11T08:23:50.706Z,34.00
2023-02-11T08:26:18.806Z,35.50
2023-02-11T08:28:46.003Z,34.50
2023-02-11T08:31:14.164Z,38.60
2023-02-11T08:33:41.255Z,34.00
2023-02-11T08:36:11.879Z,29.00
2023-02-11T08:38:38.742Z,32.20
2023-02-11T08:41:05.456Z,30.00
2023-02-11T08:43:33.477Z,35.00
2023-02-11T08:46:02.197Z,28.75
2023-02-11T08:48:29.048Z,28.00
2023-02-11T08:50:56.157Z,28.00
2023-02-11T08:53:22.620Z,28.00
2023-02-11T08:55:53.232Z,31.00
2023-02-11T08:58:20.316Z,27.50
2023-02-11T09:00:47.428Z,27.00
2023-02-11T09:03:14.723Z,28.50
2023-02-11T09:05:44.994Z,29.60
2023-02-11T09:08:11.561Z,28.00
2023-02-11T09:10:38.181Z,26.80
2023-02-11T09:13:05.365Z,30.33
2023-02-11T09:15:32.105Z,27.50
2023-02-11T09:17:58.610Z,26.00
2023-02-11T09:20:26.560Z,25.00
2023-02-11T09:22:53.729Z,25.75
2023-02-11T09:25:20.508Z,28.00
2023-02-11T09:27:46.976Z,27.00
2023-02-11T09:30:13.749Z,23.40
2023-02-11T09:32:40.197Z,22.00
2023-02-11T09:35:06.747Z,23.20
2023-02-11T09:37:35.106Z,25.00
2023-02-11T09:40:02.866Z,24.20
2023-02-11T09:42:38.217Z,24.00
2023-02-11T09:45:10.738Z,29.25
2023-02-11T09:47:44.416Z,25.50
2023-02-11T09:50:13.207Z,22.50
2023-02-11T09:52:49.724Z,27.40
2023-02-11T09:55:22.616Z,24.00
2023-02-11T09:57:49.264Z,21.80
2023-02-11T10:00:18.483Z,21.60
2023-02-11T10:02:58.279Z,19.00
2023-02-11T10:05:51.070Z,21.00
2023-02-11T10:08:27.801Z,20.80
2023-02-11T10:10:59.360Z,24.00
2023-02-11T10:13:44.957Z,27.00
2023-02-11T10:16:23.433Z,17.20
2023-02-11T10:19:11.034Z,18.00
2023-02-11T10:21:52.837Z,16.00
2023-02-11T10:24:20.031Z,20.00
2023-02-11T10:26:46.795Z,18.00
2023-02-11T10:29:33.468Z,19.40
2023-02-11T10:32:01.890Z,20.60
2023-02-11T10:34:28.344Z,19.60
2023-02-11T10:36:54.860Z,19.75
2023-02-11T10:39:23.080Z,22.00
2023-02-11T10:41:53.195Z,21.50
2023-02-11T10:44:31.159Z,22.75
2023-02-11T10:46:59.159Z,25.00
2023-02-11T10:49:35.238Z,25.50
2023-02-11T10:52:20.304Z,26.00
2023-02-11T10:54:57.405Z,22.00
2023-02-11T10:57:26.300Z,23.60
2023-02-11T10:59:57.058Z,23.00
2023-02-11T11:02:32.029Z,22.50
2023-02-11T11:04:59.228Z,23.60
2023-02-11T11:07:29.564Z,23.60
2023-02-11T11:09:59.749Z,23.75
2023-02-11T11:12:27.899Z,25.00
2023-02-11T11:14:59.197Z,22.60
2023-02-11T11:17:29.144Z,23.00
2023-02-11T11:20:15.910Z,22.00
2023-02-11T11:22:43.184Z,22.00
2023-02-11T11:25:23.766Z,24.00
2023-02-11T11:27:55.895Z,22.50
2023-02-11T11:30:23.522Z,25.80
2023-02-11T11:32:50.226Z,23.00
2023-02-11T11:35:30.147Z,26.00
2023-02-11T11:38:01.370Z,23.00
2023-02-11T11:40:29.913Z,27.00
2023-02-11T11:43:14.473Z,24.50
2023-02-11T11:45:59.981Z,24.00
2023-02-11T11:48:28.793Z,23.00
2023-02-11T11:51:00.297Z,23.00
2023-02-11T11:53:36.111Z,24.00
2023-02-11T11:56:07.701Z,22.00
2023-02-11T11:58:34.226Z,23.00
2023-02-11T12:01:00.764Z,22.40
2023-02-11T12:03:36.308Z,23.00
2023-02-11T12:06:08.690Z,22.00
2023-02-11T12:08:53.746Z,22.00
2023-02-11T12:11:46.700Z,23.40
2023-02-11T12:14:13.195Z,24.00
2023-02-11T12:17:03.221Z,25.00
2023-02-11T12:19:48.569Z,24.25
2023-02-11T12:22:26.900Z,27.00
2023-02-11T12:25:05.497Z,25.00
2023-02-11T12:27:31.937Z,25.60
2023-02-11T12:30:04.157Z,27.50
2023-02-11T12:32:54.745Z,25.00
2023-02-11T12:35:56.842Z,28.00
2023-02-11T12:38:23.418Z,26.60
2023-02-11T12:41:10.430Z,27.00
2023-02-11T12:43:42.415Z,28.00
2023-02-11T12:46:17.955Z,28.00
2023-02-11T12:48:50.303Z,27.40
2023-02-11T12:51:16.760Z,27.60
2023-02-11T12:53:43.206Z,30.00
2023-02-11T12:56:23.316Z,27.00
2023-02-11T12:58:52.426Z,27.00
2023-02-11T13:01:32.082Z,27.00
2023-02-11T13:04:18.845Z,28.50
2023-02-11T13:06:49.202Z,28.00
2023-02-11T13:09:21.185Z,27.50
2023-02-11T13:11:53.480Z,27.00
2023-02-11T13:14:23.175Z,24.75
2023-02-11T13:16:51.015Z,23.60
2023-02-11T13:19:24.100Z,24.40
2023-02-11T13:22:02.691Z,23.75
2023-02-11T13:24:29.189Z,23.40
2023-02-11T13:26:55.695Z,25.20
2023-02-11T13:29:27.997Z,25.60
2023-02-11T13:31:55.692Z,25.50
2023-02-11T13:34:26.579Z,25.00
2023-02-11T13:36:57.275Z,26.00
2023-02-11T13:39:23.937Z,26.75
2023-02-11T13:41:52.906Z,26.75
2023-02-11T13:44:22.611Z,27.00
2023-02-11T13:46:57.300Z,25.00
2023-02-11T13:49:23.776Z,26.00
2023-02-11T13:51:51.369Z,26.40
2023-02-11T13:54:21.388Z,26.00
2023-02-11T13:57:07.824Z,24.00
2023-02-11T13:59:35.388Z,24.00
2023-02-11T14:02:20.332Z,26.25
2023-02-11T14:05:29.365Z,25.25
2023-02-11T14:08:40.889Z,24.40
2023-02-11T14:11:14.416Z,24.00
2023-02-11T14:13:53.053Z,24.00
2023-02-11T14:16:37.030Z,23.20
2023-02-11T14:19:04.489Z,23.00
2023-02-11T14:21:33.654Z,23.50
2023-02-11T14:24:04.971Z,24.00
2023-02-11T14:26:34.373Z,25.20
2023-02-11T14:29:07.585Z,26.80
2023-02-11T14:31:54.412Z,25.40
2023-02-11T14:34:24.126Z,28.00
2023-02-11T14:36:55.593Z,28.00
2023-02-11T14:39:25.644Z,28.00
2023-02-11T14:41:52.702Z,27.40
2023-02-11T14:44:24.103Z,28.60
2023-02-11T14:46:52.575Z,28.75
2023-02-11T14:49:22.177Z,27.60
2023-02-11T14:51:48.794Z,28.75
2023-02-11T14:54:22.768Z,26.60
2023-02-11T14:57:05.589Z,29.20
2023-02-11T14:59:32.075Z,28.75
2023-02-11T15:01:59.367Z,28.00
2023-02-11T15:04:33.446Z,29.00
2023-02-11T15:07:04.883Z,30.00
2023-02-11T15:09:40.595Z,28.00
2023-02-11T15:12:13.649Z,29.00
2023-02-11T15:14:40.837Z,28.60
2023-02-11T15:17:08.889Z,28.00
2023-02-11T15:19:37.759Z,28.50
2023-02-11T15:22:10.683Z,28.50
2023-02-11T15:24:39.399Z,28.80
2023-02-11T15:27:16.315Z,28.60
2023-02-11T15:29:49.235Z,29.00
2023-02-11T15:32:17.644Z,27.67
2023-02-11T15:34:45.231Z,27.25
2023-02-11T15:37:19.469Z,28.00
2023-02-11T15:39:45.955Z,28.00
2023-02-11T15:42:18.297Z,28.25
2023-02-11T15:44:45.423Z,28.50
2023-02-11T15:47:13.367Z,29.00
2023-02-11T15:49:44.367Z,28.75
2023-02-11T15:52:11.836Z,29.00
2023-02-11T15:54:38.652Z,29.00
2023-02-11T15:57:07.412Z,28.00
2023-02-11T15:59:35.937Z,29.25
2023-02-11T16:02:07.374Z,27.40
2023-02-11T16:04:34.361Z,30.00
2023-02-11T16:07:00.866Z,31.00
2023-02-11T16:09:36.717Z,29.50
2023-02-11T16:12:07.540Z,31.00
2023-02-11T16:14:39.494Z,30.00
2023-02-11T16:17:18.538Z,29.00
2023-02-11T16:19:46.990Z,30.20
2023-02-11T16:22:22.751Z,30.00
2023-02-11T16:24:52.541Z,32.00
2023-02-11T16:27:30.537Z,31.00
2023-02-11T16:29:57.873Z,31.00
2023-02-11T16:32:25.500Z,32.60
2023-02-11T16:34:52.802Z,32.00
2023-02-11T16:37:19.462Z,32.00
2023-02-11T16:39:45.908Z,33.00
2023-02-11T16:42:12.735Z,32.20
2023-02-11T16:44:39.229Z,33.00
2023-02-11T16:47:07.691Z,33.00
2023-02-11T16:49:35.841Z,32.00
2023-02-11T16:52:05.675Z,34.50
2023-02-11T16:54:32.695Z,33.00
2023-02-11T16:56:59.266Z,33.00
2023-02-11T16:59:25.755Z,35.00
2023-02-11T17:01:53.648Z,34.00
2023-02-11T17:04:23.850Z,34.00
2023-02-11T17:06:50.415Z,35.00
2023-02-11T17:09:24.513Z,35.50
2023-02-11T17:11:51.412Z,35.00
2023-02-11T17:14:18.306Z,36.50
2023-02-11T17:16:46.085Z,33.80
2023-02-11T17:19:13.640Z,34.00
2023-02-11T17:21:43.694Z,34.25
2023-02-11T17:24:10.755Z,35.00
2023-02-11T17:26:38.050Z,35.00
2023-02-11T17:29:05.396Z,34.00
2023-02-11T17:31:32.026Z,35.00
2023-02-11T17:33:58.564Z,36.00
2023-02-11T17:36:25.285Z,34.25
2023-02-11T17:38:52.182Z,35.80
2023-02-11T17:41:18.708Z,41.00
2023-02-11T17:43:45.262Z,63.75
2023-02-11T17:46:13.022Z,75.50
2023-02-11T17:48:39.731Z,28.00
2023-02-11T17:51:19.376Z,97.50
2023-02-11T17:53:46.782Z,79.00
2023-02-11T17:56:13.254Z,73.60
2023-02-11T17:58:39.723Z,65.75
2023-02-11T18:01:06.294Z,63.60
2023-02-11T18:03:33.152Z,58.00
2023-02-11T18:06:00.942Z,55.00
2023-02-11T18:08:27.524Z,35.75
2023-02-11T18:10:54.222Z,58.20
2023-02-11T18:13:20.756Z,54.50
2023-02-11T18:15:47.579Z,52.00
2023-02-11T18:18:14.971Z,50.00
2023-02-11T18:20:44.437Z,58.50
2023-02-11T18:23:10.988Z,69.00
2023-02-11T18:25:37.791Z,66.40
2023-02-11T18:28:04.295Z,69.40
2023-02-11T18:30:34.017Z,72.00
2023-02-11T18:33:00.496Z,67.25
2023-02-11T18:35:27.025Z,65.00
2023-02-11T18:37:53.558Z,64.50
2023-02-11T18:40:20.301Z,61.75
2023-02-11T18:42:46.800Z,68.00
2023-02-11T18:45:15.118Z,70.80
2023-02-11T18:47:41.740Z,72.50
2023-02-11T18:50:09.052Z,67.40
2023-02-11T18:52:38.869Z,75.80
2023-02-11T18:55:06.099Z,89.40
2023-02-11T18:57:32.632Z,95.00
2023-02-11T18:59:59.062Z,92.25
2023-02-11T19:02:25.562Z,102.33
2023-02-11T19:04:52.143Z,106.00
2023-02-11T19:07:18.638Z,116.75
2023-02-11T19:09:45.077Z,129.20
2023-02-11T19:12:12.022Z,129.20
2023-02-11T19:14:38.857Z,133.25
2023-02-11T19:17:06.354Z,134.00
2023-02-11T19:19:33.697Z,137.75
2023-02-11T19:22:00.517Z,143.80
2023-02-11T19:24:28.334Z,158.00
2023-02-11T19:26:59.018Z,158.25
2023-02-11T19:29:25.556Z,153.00
2023-02-11T19:31:52.213Z,168.50
2023-02-11T19:34:19.996Z,167.20
2023-02-11T19:36:46.943Z,152.60
2023-02-11T19:39:13.466Z,138.40
2023-02-11T19:41:40.002Z,134.60
2023-02-11T19:44:07.021Z,142.80
2023-02-11T19:46:35.417Z,145.00
2023-02-11T19:49:02.570Z,130.75
2023-02-11T19:51:29.696Z,119.60
2023-02-11T19:53:56.313Z,120.00
2023-02-11T19:56:23.163Z,119.80
2023-02-11T19:58:49.622Z,122.50
2023-02-11T20:01:17.956Z,128.00
2023-02-11T20:03:44.428Z,132.40
2023-02-11T20:06:15.456Z,133.00
2023-02-11T20:08:41.971Z,142.25
2023-02-11T20:11:12.622Z,117.75
2023-02-11T20:13:39.482Z,103.75
2023-02-11T20:16:10.703Z,98.25
2023-02-11T20:18:37.233Z,94.00
2023-02-11T20:21:10.909Z,93.50
2023-02-11T20:23:38.405Z,97.00
2023-02-11T20:26:09.130Z,100.50
2023-02-11T20:28:36.041Z,95.25
2023-02-11T20:31:03.843Z,92.00
2023-02-11T20:33:31.220Z,97.60
2023-02-11T20:35:58.880Z,108.00
2023-02-11T20:38:25.843Z,114.40
2023-02-11T20:40:52.661Z,109.40
2023-02-11T20:43:19.744Z,103.50
2023-02-11T20:45:47.107Z,97.50
2023-02-11T20:48:14.032Z,97.75
2023-02-11T20:50:40.655Z,105.75
2023-02-11T20:53:07.206Z,100.60
2023-02-11T20:55:36.481Z,106.00
2023-02-11T20:58:03.351Z,116.40
2023-02-11T21:00:29.872Z,116.40
2023-02-11T21:02:56.390Z,118.60
2023-02-11T21:05:22.889Z,126.00
2023-02-11T21:07:49.337Z,120.75
2023-02-11T21:10:16.444Z,141.00
2023-02-11T21:12:42.916Z,143.60
2023-02-11T21:15:09.771Z,142.50
2023-02-11T21:17:36.235Z,146.00
2023-02-11T21:20:02.672Z,144.00
2023-02-11T21:22:29.380Z,139.40
2023-02-11T21:24:55.838Z,139.60
2023-02-11T21:27:23.349Z,138.00
2023-02-11T21:29:54.611Z,137.20
2023-02-11T21:32:21.309Z,132.00
2023-02-11T21:34:47.794Z,142.25
2023-02-11T21:37:14.333Z,140.60
2023-02-11T21:39:42.453Z,132.00
2023-02-11T21:42:09.047Z,127.60
2023-02-11T21:44:35.506Z,118.60
2023-02-11T21:47:02.075Z,123.00
2023-02-11T21:49:29.168Z,126.20
2023-02-11T21:51:55.671Z,123.50
2023-02-11T21:54:23.988Z,115.00
2023-02-11T21:56:51.669Z,113.40
2023-02-11T21:59:18.173Z,115.75
2023-02-11T22:01:45.102Z,119.80
2023-02-11T22:04:11.882Z,113.25
2023-02-11T22:06:38.838Z,114.00
2023-02-11T22:09:07.962Z,116.00
2023-02-11T22:11:34.859Z,119.25
2023-02-11T22:14:01.428Z,122.80
2023-02-11T22:16:28.431Z,117.60
2023-02-11T22:18:56.531Z,109.80
2023-02-11T22:21:23.151Z,116.00
2023-02-11T22:23:50.310Z,120.00
2023-02-11T22:26:19.521Z,116.80
2023-02-11T22:28:46.274Z,115.00
2023-02-11T22:31:14.376Z,114.50
2023-02-11T22:33:41.053Z,109.50
2023-02-11T22:36:08.963Z,112.00
2023-02-11T22:38:35.605Z,115.00
2023-02-11T22:41:06.255Z,121.00
2023-02-11T22:43:32.764Z,119.67
2023-02-11T22:46:03.054Z,117.00
2023-02-11T22:48:29.670Z,120.50
2023-02-11T22:50:56.220Z,117.00
2023-02-11T22:53:25.493Z,114.50
2023-02-11T22:55:52.424Z,118.00
2023-02-11T22:58:19.082Z,109.00
2023-02-11T23:00:45.708Z,113.25
2023-02-11T23:03:12.457Z,108.25
2023-02-11T23:05:39.375Z,113.20
2023-02-11T23:08:06.132Z,115.50
2023-02-11T23:10:34.147Z,119.00
2023-02-11T23:13:00.610Z,110.75
2023-02-11T23:15:27.040Z,117.00
2023-02-11T23:17:53.539Z,116.00
2023-02-11T23:20:20.053Z,116.20
2023-02-11T23:22:46.569Z,118.40
2023-02-11T23:25:13.148Z,116.25
2023-02-11T23:27:39.682Z,114.00
2023-02-11T23:30:06.371Z,113.50
2023-02-11T23:32:33.103Z,113.80
2023-02-11T23:34:59.668Z,122.00
2023-02-11T23:37:26.117Z,119.60
2023-02-11T23:39:52.565Z,119.75
2023-02-11T23:42:19.061Z,119.50
2023-02-11T23:44:46.351Z,126.50
2023-02-11T23:47:12.861Z,125.75
2023-02-11T23:49:39.361Z,113.50
2023-02-11T23:52:05.884Z,119.00
2023-02-11T23:54:35.100Z,119.50
2023-02-11T23:57:01.521Z,119.00
2023-02-11T23:59:28.034Z,124.20
